Terminal Aerodrome Forecast
Issued by NWS Albany, NY

Home | Current Version | Previous Version | Text Only | Print | Product List | Glossary On
Versions: 1 2 3 4 5 6 7 8 9 10 11 12 13 14 15
846
FTUS41 KALY 242337
TAFGFL
TAF
KGFL 242337Z 2500/2524 03010KT P6SM SCT250
     FM251000 04004KT P6SM BKN080 PROB30 2510/2512 -RA OVC050
     FM251200 06005KT 6SM -RA BR OVC050
     FM251500 03006KT 3SM -RA BR OVC025
     FM252000 04008KT 3SM -RA OVC015=

USA.gov is the U.S. government's official web portal to all federal, state and local government web resources and services.